Terminal Aerodrome Forecast
Issued by NWS St Louis, MO

Home | Current Version | Previous Version | Text Only | Print | Product List | Glossary On
Versions: 1 2 3 4 5 6 7 8 9 10 11 12 13 14 15 16 17 18 19 20 21 22 23 24 25
000
FTUS43 KLSX 182336
TAFSTL
TAF
KSTL 182336Z 1900/2006 30016G28KT P6SM BKN060
     FM190600 32012KT P6SM OVC030
     FM191100 34010KT P6SM SCT012 BKN020
     FM191700 35009KT P6SM SCT035
     FM200200 02004KT P6SM SKC=

USA.gov is the U.S. government's official web portal to all federal, state and local government web resources and services.